createdAt,value
2022-08-07T00:02:37.131Z,49.85
2022-08-07T00:05:05.967Z,44.60
2022-08-07T00:07:40.317Z,46.80
2022-08-07T00:10:30.503Z,50.53
2022-08-07T00:13:09.750Z,48.70
2022-08-07T00:15:53.113Z,50.97
2022-08-07T00:18:23.944Z,45.03
2022-08-07T00:21:01.683Z,45.25
2022-08-07T00:23:33.857Z,44.42
2022-08-07T00:26:13.239Z,67.53
2022-08-07T00:28:56.813Z,49.65
2022-08-07T00:31:37.855Z,45.58
2022-08-07T00:34:10.268Z,45.35
2022-08-07T00:36:43.359Z,70.85
2022-08-07T00:39:16.869Z,51.03
2022-08-07T00:42:01.435Z,45.58
2022-08-07T00:44:34.561Z,46.80
2022-08-07T00:47:04.131Z,42.60
2022-08-07T00:50:20.390Z,43.05
2022-08-07T00:52:24.875Z,38.88
2022-08-07T00:54:54.330Z,43.33
2022-08-07T00:57:25.937Z,43.63
2022-08-07T00:59:55.377Z,43.13
2022-08-07T01:02:28.419Z,40.28
2022-08-07T01:05:00.727Z,58.55
2022-08-07T01:07:31.540Z,51.67
2022-08-07T01:10:06.946Z,44.22
2022-08-07T01:12:53.397Z,51.40
2022-08-07T01:16:00.853Z,77.75
2022-08-07T01:18:17.049Z,42.95
2022-08-07T01:21:22.574Z,45.88
2022-08-07T01:23:54.907Z,40.60
2022-08-07T01:26:26.252Z,46.33
2022-08-07T01:28:56.466Z,43.47
2022-08-07T01:31:41.982Z,55.75
2022-08-07T01:36:52.643Z,43.90
2022-08-07T01:39:40.360Z,48.97
2022-08-07T01:42:57.358Z,48.57
2022-08-07T01:45:36.379Z,64.45
2022-08-07T01:48:29.352Z,53.25
2022-08-07T01:51:24.418Z,82.38
2022-08-07T01:54:11.977Z,103.88
2022-08-07T01:59:45.144Z,130.77
2022-08-07T02:03:12.137Z,130.63
2022-08-07T02:05:15.845Z,139.30
2022-08-07T02:07:53.304Z,136.48
2022-08-07T02:10:33.744Z,129.77
2022-08-07T02:13:07.820Z,133.75
2022-08-07T02:15:53.121Z,143.00
2022-08-07T02:18:25.894Z,152.57
2022-08-07T02:21:00.994Z,153.10
2022-08-07T02:23:40.599Z,155.98
2022-08-07T02:26:31.695Z,144.55
2022-08-07T02:29:00.082Z,135.95
2022-08-07T02:31:32.608Z,147.05
2022-08-07T02:34:11.692Z,144.88
2022-08-07T02:36:53.675Z,144.80
2022-08-07T02:39:43.802Z,133.40
2022-08-07T02:42:18.546Z,144.10
2022-08-07T02:44:51.890Z,144.00
2022-08-07T02:47:23.917Z,139.60
2022-08-07T02:50:01.736Z,144.70
2022-08-07T02:53:10.914Z,153.07
2022-08-07T02:56:03.371Z,137.80
2022-08-07T02:58:39.799Z,147.10
2022-08-07T03:01:19.103Z,145.55
2022-08-07T03:04:12.637Z,150.50
2022-08-07T03:06:45.959Z,150.55
2022-08-07T03:09:44.697Z,158.80
2022-08-07T03:12:14.200Z,154.38
2022-08-07T03:14:56.873Z,164.65
2022-08-07T03:17:26.801Z,144.75
2022-08-07T03:19:57.642Z,148.48
2022-08-07T03:22:30.673Z,157.25
2022-08-07T03:25:01.496Z,138.95
2022-08-07T03:27:58.691Z,139.65
2022-08-07T03:30:28.667Z,136.95
2022-08-07T03:33:02.432Z,135.38
2022-08-07T03:35:43.660Z,136.48
2022-08-07T03:38:25.594Z,130.70
2022-08-07T03:41:02.138Z,125.35
2022-08-07T03:43:36.090Z,125.45
2022-08-07T03:46:10.547Z,130.93
2022-08-07T03:49:02.045Z,128.88
2022-08-07T03:51:47.765Z,137.23
2022-08-07T03:54:35.488Z,130.50
2022-08-07T03:59:05.551Z,133.50
2022-08-07T04:00:02.656Z,132.73
2022-08-07T04:02:47.137Z,132.13
2022-08-07T04:05:40.204Z,130.00
2022-08-07T04:08:21.106Z,124.00
2022-08-07T04:10:54.428Z,135.18
2022-08-07T04:14:09.873Z,120.25
2022-08-07T04:16:35.657Z,127.70
2022-08-07T04:19:15.245Z,126.95
2022-08-07T04:21:59.099Z,130.15
2022-08-07T04:24:38.782Z,127.25
2022-08-07T04:27:20.404Z,132.07
2022-08-07T04:30:01.244Z,130.05
2022-08-07T04:32:48.158Z,126.93
2022-08-07T04:35:35.278Z,128.95
2022-08-07T04:38:11.419Z,124.93
2022-08-07T04:40:51.796Z,125.60
2022-08-07T04:44:11.722Z,123.75
2022-08-07T04:47:08.269Z,133.63
2022-08-07T04:50:03.888Z,129.73
2022-08-07T04:52:51.761Z,134.38
2022-08-07T04:58:24.302Z,125.83
2022-08-07T04:58:49.675Z,132.27
2022-08-07T05:01:21.079Z,128.07
2022-08-07T05:04:28.054Z,128.35
2022-08-07T05:07:19.998Z,128.20
2022-08-07T05:10:11.142Z,127.95
2022-08-07T05:12:53.639Z,132.30
2022-08-07T05:15:32.091Z,137.23
2022-08-07T05:18:09.336Z,126.45
2022-08-07T05:20:47.533Z,125.22
2022-08-07T05:23:37.114Z,122.18
2022-08-07T05:26:18.718Z,126.13
2022-08-07T05:28:58.627Z,131.27
2022-08-07T05:31:39.525Z,129.32
2022-08-07T05:34:18.385Z,115.95
2022-08-07T05:36:52.934Z,124.53
2022-08-07T05:40:06.821Z,125.50
2022-08-07T05:42:34.261Z,120.20
2022-08-07T05:45:26.327Z,116.60
2022-08-07T05:48:03.317Z,113.38
2022-08-07T05:50:43.365Z,106.35
2022-08-07T05:54:12.816Z,102.20
2022-08-07T05:56:06.965Z,106.85
2022-08-07T05:58:52.417Z,114.55
2022-08-07T06:01:35.627Z,123.95
2022-08-07T06:04:09.175Z,103.35
2022-08-07T06:06:46.316Z,100.55
2022-08-07T06:09:19.283Z,108.95
2022-08-07T06:11:51.269Z,114.72
2022-08-07T06:14:28.588Z,108.20
2022-08-07T06:17:07.325Z,100.45
2022-08-07T06:19:51.876Z,102.15
2022-08-07T06:22:38.727Z,105.65
2022-08-07T06:25:26.534Z,106.25
2022-08-07T06:28:07.677Z,100.70
2022-08-07T06:30:42.742Z,102.22
2022-08-07T06:33:20.069Z,98.90
2022-08-07T06:36:06.889Z,108.60
2022-08-07T06:38:59.546Z,99.10
2022-08-07T06:42:01.666Z,107.32
2022-08-07T06:45:11.314Z,117.07
2022-08-07T06:47:48.307Z,88.32
2022-08-07T06:50:30.450Z,78.82
2022-08-07T06:53:04.200Z,77.82
2022-08-07T06:55:47.895Z,69.97
2022-08-07T06:58:28.814Z,77.53
2022-08-07T07:01:14.183Z,91.20
2022-08-07T07:03:49.244Z,66.07
2022-08-07T07:06:27.115Z,63.05
2022-08-07T07:08:56.856Z,60.45
2022-08-07T07:12:07.723Z,52.67
2022-08-07T07:14:19.025Z,48.47
2022-08-07T07:19:55.923Z,47.88
2022-08-07T07:22:36.008Z,59.10
2022-08-07T07:26:30.687Z,50.67
2022-08-07T07:28:42.167Z,380.63
2022-08-07T07:31:44.150Z,45.90
2022-08-07T07:34:18.274Z,39.88
2022-08-07T07:36:53.845Z,39.28
2022-08-07T07:39:25.898Z,42.08
2022-08-07T07:42:17.624Z,41.13
2022-08-07T07:44:50.634Z,41.28
2022-08-07T07:47:23.632Z,41.13
2022-08-07T07:50:34.692Z,41.65
2022-08-07T07:52:46.918Z,61.70
2022-08-07T07:55:23.161Z,42.47
2022-08-07T07:57:58.162Z,49.08
2022-08-07T08:00:31.489Z,53.78
2022-08-07T08:03:09.016Z,53.03
2022-08-07T08:05:54.846Z,55.05
2022-08-07T08:08:35.238Z,60.35
2022-08-07T08:11:08.596Z,94.63
2022-08-07T08:13:55.176Z,62.83
2022-08-07T08:16:31.022Z,62.25
2022-08-07T08:19:17.990Z,65.10
2022-08-07T08:22:11.545Z,72.45
2022-08-07T08:25:18.690Z,62.50
2022-08-07T08:28:01.734Z,60.95
2022-08-07T08:30:42.484Z,69.28
2022-08-07T08:33:19.547Z,79.72
2022-08-07T08:35:56.350Z,70.60
2022-08-07T08:41:05.520Z,66.60
2022-08-07T08:43:42.170Z,70.28
2022-08-07T08:46:38.642Z,112.75
2022-08-07T08:49:32.748Z,73.88
2022-08-07T08:55:07.856Z,73.57
2022-08-07T08:57:45.213Z,89.53
2022-08-07T09:00:14.973Z,88.53
2022-08-07T09:02:53.543Z,97.10
2022-08-07T09:05:59.855Z,100.30
2022-08-07T09:09:30.133Z,109.30
2022-08-07T09:12:20.070Z,103.28
2022-08-07T09:16:21.617Z,90.55
2022-08-07T09:18:33.728Z,103.90
2022-08-07T09:21:57.940Z,93.10
2022-08-07T09:24:59.774Z,90.80
2022-08-07T09:28:03.102Z,93.28
2022-08-07T09:31:15.397Z,91.47
2022-08-07T09:34:33.184Z,95.32
2022-08-07T09:37:03.274Z,113.55
2022-08-07T09:40:00.586Z,65.18
2022-08-07T09:42:53.320Z,62.88
2022-08-07T09:47:24.644Z,62.15
2022-08-07T09:50:01.738Z,64.13
2022-08-07T09:52:10.809Z,86.28
2022-08-07T09:54:47.933Z,61.10
2022-08-07T09:57:53.719Z,61.25
2022-08-07T10:00:31.949Z,49.97
2022-08-07T10:04:04.943Z,40.95
2022-08-07T10:06:38.854Z,45.92
2022-08-07T10:09:59.071Z,52.03
2022-08-07T10:14:00.570Z,57.38
2022-08-07T10:17:01.103Z,101.70
2022-08-07T10:20:13.255Z,55.97
2022-08-07T10:23:02.711Z,61.47
2022-08-07T10:26:13.258Z,45.95
2022-08-07T10:29:02.647Z,38.45
2022-08-07T10:32:31.569Z,43.08
2022-08-07T10:35:14.882Z,37.58
2022-08-07T10:38:21.653Z,32.92
2022-08-07T10:41:07.611Z,32.72
2022-08-07T10:43:45.213Z,34.60
2022-08-07T10:46:20.410Z,34.88
2022-08-07T10:49:10.886Z,35.00
2022-08-07T10:52:02.121Z,28.92
2022-08-07T10:54:53.518Z,28.05
2022-08-07T10:57:39.585Z,33.55
2022-08-07T11:00:39.154Z,24.88
2022-08-07T11:03:20.871Z,21.42
2022-08-07T11:06:26.735Z,26.60
2022-08-07T11:11:36.112Z,22.63
2022-08-07T11:14:45.488Z,24.38
2022-08-07T11:17:43.246Z,23.35
2022-08-07T11:20:27.350Z,19.25
2022-08-07T11:23:26.275Z,23.65
2022-08-07T11:26:06.346Z,18.85
2022-08-07T11:28:51.329Z,17.52
2022-08-07T11:31:47.708Z,16.23
2022-08-07T11:34:43.381Z,18.92
2022-08-07T11:37:58.443Z,17.40
2022-08-07T11:40:45.318Z,15.38
2022-08-07T11:43:41.589Z,16.33
2022-08-07T11:46:42.791Z,16.73
2022-08-07T11:49:51.155Z,19.63
2022-08-07T11:52:10.541Z,16.38
2022-08-07T11:55:13.171Z,16.77
2022-08-07T11:58:16.559Z,15.15
2022-08-07T12:01:20.150Z,17.60
2022-08-07T12:04:12.373Z,15.65
2022-08-07T12:07:03.033Z,15.60
2022-08-07T12:09:47.318Z,13.55
2022-08-07T12:12:25.008Z,15.82
2022-08-07T12:15:17.412Z,12.77
2022-08-07T12:18:30.667Z,13.40
2022-08-07T12:21:55.911Z,15.13
2022-08-07T12:24:37.934Z,11.88
2022-08-07T12:27:16.199Z,12.70
2022-08-07T12:29:51.582Z,13.65
2022-08-07T12:32:35.496Z,12.52
2022-08-07T12:35:08.333Z,14.07
2022-08-07T12:38:09.720Z,13.00
2022-08-07T12:40:50.453Z,13.27
2022-08-07T12:44:02.790Z,13.23
2022-08-07T12:46:26.653Z,15.52
2022-08-07T12:49:44.720Z,15.88
2022-08-07T12:52:46.160Z,11.98
2022-08-07T12:55:40.834Z,12.88
2022-08-07T12:58:15.350Z,13.50
2022-08-07T13:00:51.604Z,14.55
2022-08-07T13:04:02.553Z,17.50
2022-08-07T13:06:54.205Z,14.95
2022-08-07T13:10:20.931Z,17.30
2022-08-07T13:13:12.025Z,12.93
2022-08-07T13:16:11.521Z,13.25
2022-08-07T13:18:58.041Z,15.30
2022-08-07T13:21:37.830Z,14.98
2022-08-07T13:24:31.666Z,14.98
2022-08-07T13:27:12.749Z,19.52
2022-08-07T13:29:59.185Z,16.10
2022-08-07T13:32:38.270Z,18.60
2022-08-07T13:35:15.819Z,21.58
2022-08-07T13:37:59.000Z,16.83
2022-08-07T13:40:43.235Z,20.33
2022-08-07T13:43:15.243Z,17.35
2022-08-07T13:46:20.895Z,17.42
2022-08-07T13:48:40.811Z,19.38
2022-08-07T13:51:28.533Z,24.25
2022-08-07T13:54:07.311Z,18.88
2022-08-07T13:56:41.363Z,31.17
2022-08-07T13:59:25.279Z,37.53
2022-08-07T14:02:08.437Z,19.17
2022-08-07T14:04:56.545Z,45.75
2022-08-07T14:07:31.574Z,73.50
2022-08-07T14:10:21.608Z,56.83
2022-08-07T14:13:00.721Z,71.20
2022-08-07T14:15:39.515Z,83.45
2022-08-07T14:18:24.114Z,92.25
2022-08-07T14:22:00.458Z,32.30
2022-08-07T14:24:22.972Z,39.85
2022-08-07T14:26:59.784Z,53.75
2022-08-07T14:30:09.527Z,66.63
2022-08-07T14:32:24.937Z,28.40
2022-08-07T14:34:55.844Z,26.75
2022-08-07T14:37:35.996Z,43.28
2022-08-07T14:40:15.752Z,39.72
2022-08-07T14:43:01.167Z,49.42
2022-08-07T14:45:51.071Z,45.22
2022-08-07T14:48:28.355Z,48.40
2022-08-07T14:51:20.676Z,50.60
2022-08-07T14:54:09.847Z,38.00
2022-08-07T14:56:44.607Z,34.17
2022-08-07T15:00:03.738Z,27.90
2022-08-07T15:02:31.739Z,27.13
2022-08-07T15:05:20.234Z,28.30
2022-08-07T15:10:58.649Z,34.70
2022-08-07T15:16:33.558Z,26.45
2022-08-07T15:22:04.666Z,28.60
2022-08-07T15:25:14.834Z,27.25
2022-08-07T15:27:31.583Z,30.05
2022-08-07T15:33:03.820Z,25.77
2022-08-07T15:44:18.287Z,36.00
2022-08-07T15:46:56.773Z,28.35
2022-08-07T15:52:30.186Z,25.33
2022-08-07T15:55:03.753Z,26.58
2022-08-07T15:57:40.120Z,37.97
2022-08-07T16:00:31.133Z,32.38
2022-08-07T16:05:34.144Z,24.38
2022-08-07T16:08:32.925Z,28.92
2022-08-07T16:11:26.702Z,29.20
2022-08-07T16:14:12.504Z,25.60
2022-08-07T16:16:57.114Z,34.25
2022-08-07T16:19:58.736Z,26.38
2022-08-07T16:22:55.173Z,30.90
2022-08-07T16:25:54.424Z,34.50
2022-08-07T16:30:08.756Z,27.63
2022-08-07T16:31:51.046Z,28.50
2022-08-07T16:34:45.515Z,25.48
2022-08-07T16:40:31.856Z,26.65
2022-08-07T16:43:12.393Z,25.48
2022-08-07T16:46:34.587Z,26.67
2022-08-07T16:50:27.148Z,23.73
2022-08-07T16:52:41.707Z,27.42
2022-08-07T16:55:08.370Z,25.67
2022-08-07T16:58:15.902Z,26.35
2022-08-07T17:01:22.929Z,22.48
2022-08-07T17:03:59.422Z,29.17
2022-08-07T17:07:04.021Z,27.40
2022-08-07T17:10:06.503Z,25.30
2022-08-07T17:12:44.052Z,26.77
2022-08-07T17:15:17.126Z,27.40
2022-08-07T17:17:49.302Z,22.38
2022-08-07T17:20:39.819Z,25.88
2022-08-07T17:23:37.703Z,21.70
2022-08-07T17:26:22.517Z,25.65
2022-08-07T17:29:04.541Z,22.67
2022-08-07T17:32:03.344Z,24.73
2022-08-07T17:35:50.341Z,22.58
2022-08-07T17:38:32.135Z,20.98
2022-08-07T17:42:00.637Z,22.75
2022-08-07T17:44:41.431Z,26.60
2022-08-07T17:47:38.612Z,21.85
2022-08-07T17:50:54.046Z,20.73
2022-08-07T17:54:01.081Z,21.70
2022-08-07T17:56:26.033Z,21.48
2022-08-07T17:58:57.786Z,21.23
2022-08-07T18:01:51.086Z,21.33
2022-08-07T18:04:31.130Z,19.85
2022-08-07T18:07:20.942Z,18.02
2022-08-07T18:10:32.671Z,21.27
2022-08-07T18:13:20.602Z,19.88
2022-08-07T18:16:31.118Z,17.75
2022-08-07T18:21:03.666Z,18.33
2022-08-07T18:22:17.021Z,19.40
2022-08-07T18:24:51.989Z,22.33
2022-08-07T18:27:39.638Z,17.15
2022-08-07T18:30:31.875Z,18.27
2022-08-07T18:33:18.316Z,20.00
2022-08-07T18:36:32.806Z,18.40
2022-08-07T18:40:08.011Z,20.38
2022-08-07T18:42:19.442Z,18.83
2022-08-07T18:45:42.929Z,20.20
2022-08-07T18:50:06.766Z,16.50
2022-08-07T18:51:11.965Z,19.25
2022-08-07T18:54:05.599Z,22.00
2022-08-07T18:57:29.492Z,18.08
2022-08-07T19:00:32.662Z,20.08
2022-08-07T19:03:38.970Z,20.83
2022-08-07T19:06:16.826Z,17.63
2022-08-07T19:08:54.964Z,17.90
2022-08-07T19:11:34.865Z,18.88
2022-08-07T19:14:20.072Z,17.48
2022-08-07T19:17:04.802Z,16.75
2022-08-07T19:20:29.912Z,17.17
2022-08-07T19:23:18.413Z,17.63
2022-08-07T19:26:25.326Z,19.67
2022-08-07T19:30:58.031Z,19.42
2022-08-07T19:32:09.701Z,21.40
2022-08-07T19:34:36.233Z,19.30
2022-08-07T19:37:55.361Z,25.17
2022-08-07T19:40:30.584Z,18.30
2022-08-07T19:43:02.822Z,18.80
2022-08-07T19:46:05.320Z,22.17
2022-08-07T19:48:43.902Z,16.52
2022-08-07T19:51:50.465Z,15.90
2022-08-07T19:54:33.669Z,16.38
2022-08-07T19:58:02.755Z,16.27
2022-08-07T20:00:02.129Z,17.60
2022-08-07T20:02:51.899Z,15.23
2022-08-07T20:05:29.554Z,21.63
2022-08-07T20:08:02.838Z,19.08
2022-08-07T20:10:54.445Z,18.42
2022-08-07T20:13:33.698Z,18.02
2022-08-07T20:16:04.501Z,14.95
2022-08-07T20:18:35.126Z,18.38
2022-08-07T20:21:14.359Z,19.08
2022-08-07T20:23:53.537Z,16.13
2022-08-07T20:26:32.212Z,17.45
2022-08-07T20:29:10.166Z,15.75
2022-08-07T20:31:46.556Z,17.88
2022-08-07T20:34:40.037Z,17.00
2022-08-07T20:37:10.351Z,16.52
2022-08-07T20:40:02.757Z,14.60
2022-08-07T20:42:35.329Z,16.20
2022-08-07T20:45:33.640Z,20.20
2022-08-07T20:47:58.801Z,14.13
2022-08-07T20:50:30.622Z,17.15
2022-08-07T20:53:01.877Z,14.65
2022-08-07T20:55:35.973Z,13.80
2022-08-07T20:58:11.990Z,15.48
2022-08-07T21:00:45.075Z,13.38
2022-08-07T21:03:19.278Z,15.30
2022-08-07T21:06:21.730Z,15.95
2022-08-07T21:09:15.588Z,14.55
2022-08-07T21:11:51.462Z,16.05
2022-08-07T21:14:34.172Z,18.83
2022-08-07T21:18:06.491Z,22.48
2022-08-07T21:20:07.338Z,18.77
2022-08-07T21:22:51.399Z,15.75
2022-08-07T21:25:38.907Z,15.48
2022-08-07T21:28:49.787Z,16.88
2022-08-07T21:31:49.264Z,16.55
2022-08-07T21:34:26.761Z,18.60
2022-08-07T21:37:09.832Z,16.92
2022-08-07T21:39:48.055Z,14.38
2022-08-07T21:42:42.583Z,16.38
2022-08-07T21:46:07.763Z,13.63
2022-08-07T21:48:44.034Z,16.85
2022-08-07T21:51:32.115Z,33.28
2022-08-07T21:54:20.250Z,16.03
2022-08-07T21:56:57.941Z,18.00
2022-08-07T22:00:02.996Z,12.38
2022-08-07T22:02:32.049Z,14.32
2022-08-07T22:05:05.901Z,81.13
2022-08-07T22:07:58.939Z,14.68
2022-08-07T22:10:35.581Z,13.52
2022-08-07T22:13:13.779Z,12.60
2022-08-07T22:16:42.712Z,11.23
2022-08-07T22:19:40.923Z,10.75
2022-08-07T22:22:21.570Z,13.43
2022-08-07T22:25:08.331Z,11.27
2022-08-07T22:28:06.400Z,12.68
2022-08-07T22:30:52.689Z,12.05
2022-08-07T22:33:53.179Z,26.88
2022-08-07T22:36:38.396Z,23.55
2022-08-07T22:39:35.332Z,13.48
2022-08-07T22:42:29.595Z,11.88
2022-08-07T22:45:04.219Z,11.75
2022-08-07T22:48:00.901Z,10.38
2022-08-07T22:51:17.111Z,13.05
2022-08-07T22:56:58.880Z,10.68
2022-08-07T22:59:53.295Z,11.63
2022-08-07T23:02:38.281Z,14.35
2022-08-07T23:06:07.587Z,12.52
2022-08-07T23:08:32.023Z,12.57
2022-08-07T23:11:24.696Z,11.55
2022-08-07T23:14:19.623Z,12.32
2022-08-07T23:17:26.661Z,11.60
2022-08-07T23:20:51.091Z,10.32
2022-08-07T23:24:05.824Z,14.15
2022-08-07T23:26:42.339Z,12.50
2022-08-07T23:30:36.063Z,12.60
2022-08-07T23:34:34.243Z,11.70
2022-08-07T23:35:56.493Z,10.23
2022-08-07T23:38:45.992Z,12.20
2022-08-07T23:42:04.336Z,15.35
2022-08-07T23:44:46.095Z,16.15
2022-08-07T23:47:30.597Z,14.50
2022-08-07T23:50:35.294Z,36.05
2022-08-07T23:53:49.533Z,11.77
2022-08-07T23:56:34.924Z,11.65
